Terminal Aerodrome Forecast
Issued by NWS St Louis, MO

Home | Current Version | Previous Version | Text Only | Print | Product List | Glossary On
Versions: 1 2 3 4 5 6 7 8 9 10 11 12 13 14 15 16 17 18 19 20 21 22
152
FTUS43 KLSX 270028 AAA
TAFCOU
TAF AMD
KCOU 270028Z 2700/2724 VRB04KT P6SM VCSH BKN020
     FM270300 14006KT P6SM SCT030 BKN120
     FM271500 19007KT P6SM SCT040 BKN120=

USA.gov is the U.S. government's official web portal to all federal, state and local government web resources and services.